sensor_id;sensor_type;location;lat;lon;timestamp;P1;durP1;ratioP1;P2;durP2;ratioP2
68944;SDS011;55984;48.790;8.990;2022-10-30T00:00:09;22.53;;;6.30;;
68944;SDS011;55984;48.790;8.990;2022-10-30T00:02:35;17.10;;;6.23;;
68944;SDS011;55984;48.790;8.990;2022-10-30T00:05:00;20.20;;;6.20;;
68944;SDS011;55984;48.790;8.990;2022-10-30T00:07:25;20.13;;;6.13;;
68944;SDS011;55984;48.790;8.990;2022-10-30T00:09:51;26.73;;;6.87;;
68944;SDS011;55984;48.790;8.990;2022-10-30T00:12:16;22.40;;;6.33;;
68944;SDS011;55984;48.790;8.990;2022-10-30T00:14:41;18.53;;;6.40;;
68944;SDS011;55984;48.790;8.990;2022-10-30T00:17:07;21.90;;;6.87;;
68944;SDS011;55984;48.790;8.990;2022-10-30T00:19:32;15.30;;;5.87;;
68944;SDS011;55984;48.790;8.990;2022-10-30T00:21:58;19.60;;;5.07;;
68944;SDS011;55984;48.790;8.990;2022-10-30T00:24:26;11.63;;;4.73;;
68944;SDS011;55984;48.790;8.990;2022-10-30T00:26:52;13.33;;;5.40;;
68944;SDS011;55984;48.790;8.990;2022-10-30T00:29:17;20.10;;;5.47;;
68944;SDS011;55984;48.790;8.990;2022-10-30T00:31:43;21.03;;;5.00;;
68944;SDS011;55984;48.790;8.990;2022-10-30T00:34:08;13.53;;;5.20;;
68944;SDS011;55984;48.790;8.990;2022-10-30T00:36:33;18.47;;;6.20;;
68944;SDS011;55984;48.790;8.990;2022-10-30T00:38:59;14.60;;;5.20;;
68944;SDS011;55984;48.790;8.990;2022-10-30T00:41:24;13.73;;;5.37;;
68944;SDS011;55984;48.790;8.990;2022-10-30T00:43:49;23.27;;;5.33;;
68944;SDS011;55984;48.790;8.990;2022-10-30T00:49:01;15.43;;;4.83;;
68944;SDS011;55984;48.790;8.990;2022-10-30T00:51:30;10.30;;;4.73;;
68944;SDS011;55984;48.790;8.990;2022-10-30T00:53:57;18.73;;;5.57;;
68944;SDS011;55984;48.790;8.990;2022-10-30T00:56:26;17.77;;;5.47;;
68944;SDS011;55984;48.790;8.990;2022-10-30T00:58:59;17.80;;;5.33;;
68944;SDS011;55984;48.790;8.990;2022-10-30T01:01:31;11.67;;;4.57;;
68944;SDS011;55984;48.790;8.990;2022-10-30T01:03:59;22.80;;;6.00;;
68944;SDS011;55984;48.790;8.990;2022-10-30T01:06:26;18.27;;;6.07;;
68944;SDS011;55984;48.790;8.990;2022-10-30T01:08:54;19.63;;;5.33;;
68944;SDS011;55984;48.790;8.990;2022-10-30T01:11:20;14.43;;;5.60;;
68944;SDS011;55984;48.790;8.990;2022-10-30T01:13:45;19.53;;;5.70;;
68944;SDS011;55984;48.790;8.990;2022-10-30T01:25:11;26.57;;;5.60;;
68944;SDS011;55984;48.790;8.990;2022-10-30T01:27:50;13.13;;;5.17;;
68944;SDS011;55984;48.790;8.990;2022-10-30T01:35:46;20.90;;;5.97;;
68944;SDS011;55984;48.790;8.990;2022-10-30T01:38:18;15.83;;;5.53;;
68944;SDS011;55984;48.790;8.990;2022-10-30T01:40:48;16.97;;;6.67;;
68944;SDS011;55984;48.790;8.990;2022-10-30T01:43:14;13.00;;;6.47;;
68944;SDS011;55984;48.790;8.990;2022-10-30T01:48:43;15.10;;;5.70;;
68944;SDS011;55984;48.790;8.990;2022-10-30T01:53:55;25.20;;;6.13;;
68944;SDS011;55984;48.790;8.990;2022-10-30T01:59:12;19.13;;;6.23;;
68944;SDS011;55984;48.790;8.990;2022-10-30T02:01:43;20.10;;;5.97;;
68944;SDS011;55984;48.790;8.990;2022-10-30T02:04:09;16.37;;;5.83;;
68944;SDS011;55984;48.790;8.990;2022-10-30T02:06:36;13.90;;;6.20;;
68944;SDS011;55984;48.790;8.990;2022-10-30T02:09:02;13.63;;;6.20;;
68944;SDS011;55984;48.790;8.990;2022-10-30T02:11:28;15.70;;;6.10;;
68944;SDS011;55984;48.790;8.990;2022-10-30T02:13:55;19.83;;;6.73;;
68944;SDS011;55984;48.790;8.990;2022-10-30T02:16:22;20.10;;;6.43;;
68944;SDS011;55984;48.790;8.990;2022-10-30T02:18:47;18.80;;;7.00;;
68944;SDS011;55984;48.790;8.990;2022-10-30T02:21:13;23.53;;;6.97;;
68944;SDS011;55984;48.790;8.990;2022-10-30T02:23:39;22.13;;;6.80;;
68944;SDS011;55984;48.790;8.990;2022-10-30T02:26:04;18.57;;;6.40;;
68944;SDS011;55984;48.790;8.990;2022-10-30T02:28:30;17.70;;;7.00;;
68944;SDS011;55984;48.790;8.990;2022-10-30T02:30:56;19.30;;;6.50;;
68944;SDS011;55984;48.790;8.990;2022-10-30T02:33:21;13.80;;;6.37;;
68944;SDS011;55984;48.790;8.990;2022-10-30T02:35:48;14.47;;;6.67;;
68944;SDS011;55984;48.790;8.990;2022-10-30T02:38:14;18.87;;;7.53;;
68944;SDS011;55984;48.790;8.990;2022-10-30T02:40:40;24.13;;;6.73;;
68944;SDS011;55984;48.790;8.990;2022-10-30T02:43:06;16.10;;;6.77;;
68944;SDS011;55984;48.790;8.990;2022-10-30T02:45:31;18.97;;;6.63;;
68944;SDS011;55984;48.790;8.990;2022-10-30T02:48:00;17.90;;;7.20;;
68944;SDS011;55984;48.790;8.990;2022-10-30T02:50:25;19.33;;;7.20;;
68944;SDS011;55984;48.790;8.990;2022-10-30T02:52:53;21.20;;;7.73;;
68944;SDS011;55984;48.790;8.990;2022-10-30T02:55:18;21.00;;;6.97;;
68944;SDS011;55984;48.790;8.990;2022-10-30T02:57:44;25.47;;;7.27;;
68944;SDS011;55984;48.790;8.990;2022-10-30T03:00:10;21.00;;;6.57;;
68944;SDS011;55984;48.790;8.990;2022-10-30T03:02:36;14.23;;;6.60;;
68944;SDS011;55984;48.790;8.990;2022-10-30T03:05:01;14.20;;;7.03;;
68944;SDS011;55984;48.790;8.990;2022-10-30T03:07:27;20.83;;;7.83;;
68944;SDS011;55984;48.790;8.990;2022-10-30T03:09:52;19.73;;;7.73;;
68944;SDS011;55984;48.790;8.990;2022-10-30T03:12:19;22.20;;;7.73;;
68944;SDS011;55984;48.790;8.990;2022-10-30T03:14:44;16.93;;;7.63;;
68944;SDS011;55984;48.790;8.990;2022-10-30T03:17:10;24.33;;;8.60;;
68944;SDS011;55984;48.790;8.990;2022-10-30T03:19:35;20.40;;;8.20;;
68944;SDS011;55984;48.790;8.990;2022-10-30T03:22:01;20.20;;;7.60;;
68944;SDS011;55984;48.790;8.990;2022-10-30T03:24:27;19.90;;;7.20;;
68944;SDS011;55984;48.790;8.990;2022-10-30T03:26:53;20.33;;;7.97;;
68944;SDS011;55984;48.790;8.990;2022-10-30T03:29:18;21.90;;;8.67;;
68944;SDS011;55984;48.790;8.990;2022-10-30T03:31:44;33.00;;;7.80;;
68944;SDS011;55984;48.790;8.990;2022-10-30T03:34:09;20.43;;;8.33;;
68944;SDS011;55984;48.790;8.990;2022-10-30T03:36:35;21.47;;;8.03;;
68944;SDS011;55984;48.790;8.990;2022-10-30T03:39:00;20.30;;;9.00;;
68944;SDS011;55984;48.790;8.990;2022-10-30T03:41:26;25.00;;;7.50;;
68944;SDS011;55984;48.790;8.990;2022-10-30T03:43:51;22.37;;;7.63;;
68944;SDS011;55984;48.790;8.990;2022-10-30T03:46:16;18.57;;;7.80;;
68944;SDS011;55984;48.790;8.990;2022-10-30T03:48:41;20.83;;;8.90;;
68944;SDS011;55984;48.790;8.990;2022-10-30T03:51:07;19.53;;;8.90;;
68944;SDS011;55984;48.790;8.990;2022-10-30T03:53:32;22.37;;;8.83;;
68944;SDS011;55984;48.790;8.990;2022-10-30T03:55:59;23.37;;;8.77;;
68944;SDS011;55984;48.790;8.990;2022-10-30T03:58:26;28.83;;;8.90;;
68944;SDS011;55984;48.790;8.990;2022-10-30T04:00:53;20.77;;;8.80;;
68944;SDS011;55984;48.790;8.990;2022-10-30T04:03:18;27.03;;;9.73;;
68944;SDS011;55984;48.790;8.990;2022-10-30T04:05:44;22.30;;;9.33;;
68944;SDS011;55984;48.790;8.990;2022-10-30T04:08:10;27.23;;;9.40;;
68944;SDS011;55984;48.790;8.990;2022-10-30T04:10:36;28.80;;;9.60;;
68944;SDS011;55984;48.790;8.990;2022-10-30T04:13:06;27.83;;;9.13;;
68944;SDS011;55984;48.790;8.990;2022-10-30T04:15:32;25.23;;;8.87;;
68944;SDS011;55984;48.790;8.990;2022-10-30T04:17:57;25.43;;;10.17;;
68944;SDS011;55984;48.790;8.990;2022-10-30T04:20:23;36.07;;;10.47;;
68944;SDS011;55984;48.790;8.990;2022-10-30T04:22:56;24.40;;;9.80;;
68944;SDS011;55984;48.790;8.990;2022-10-30T04:25:26;41.30;;;11.37;;
68944;SDS011;55984;48.790;8.990;2022-10-30T04:27:51;26.07;;;9.40;;
68944;SDS011;55984;48.790;8.990;2022-10-30T04:30:17;21.50;;;9.10;;
68944;SDS011;55984;48.790;8.990;2022-10-30T04:35:14;25.63;;;11.83;;
68944;SDS011;55984;48.790;8.990;2022-10-30T04:37:40;31.80;;;10.93;;
68944;SDS011;55984;48.790;8.990;2022-10-30T04:40:06;29.50;;;9.60;;
68944;SDS011;55984;48.790;8.990;2022-10-30T04:42:32;28.17;;;10.83;;
68944;SDS011;55984;48.790;8.990;2022-10-30T04:44:58;26.03;;;9.20;;
68944;SDS011;55984;48.790;8.990;2022-10-30T04:47:26;30.37;;;9.70;;
68944;SDS011;55984;48.790;8.990;2022-10-30T04:49:52;23.07;;;9.50;;
68944;SDS011;55984;48.790;8.990;2022-10-30T04:52:17;25.50;;;10.00;;
68944;SDS011;55984;48.790;8.990;2022-10-30T04:54:42;25.40;;;9.90;;
68944;SDS011;55984;48.790;8.990;2022-10-30T04:57:09;26.60;;;10.23;;
68944;SDS011;55984;48.790;8.990;2022-10-30T04:59:34;35.70;;;11.07;;
68944;SDS011;55984;48.790;8.990;2022-10-30T05:01:59;28.80;;;11.40;;
68944;SDS011;55984;48.790;8.990;2022-10-30T05:04:24;37.87;;;11.03;;
68944;SDS011;55984;48.790;8.990;2022-10-30T05:06:50;35.37;;;11.07;;
68944;SDS011;55984;48.790;8.990;2022-10-30T05:09:15;30.77;;;10.30;;
68944;SDS011;55984;48.790;8.990;2022-10-30T05:11:40;21.57;;;10.33;;
68944;SDS011;55984;48.790;8.990;2022-10-30T05:14:06;28.40;;;10.57;;
68944;SDS011;55984;48.790;8.990;2022-10-30T05:16:31;27.47;;;10.90;;
68944;SDS011;55984;48.790;8.990;2022-10-30T05:18:56;28.87;;;10.30;;
68944;SDS011;55984;48.790;8.990;2022-10-30T05:21:22;24.40;;;10.40;;
68944;SDS011;55984;48.790;8.990;2022-10-30T05:23:47;24.90;;;10.90;;
68944;SDS011;55984;48.790;8.990;2022-10-30T05:26:12;34.27;;;10.30;;
68944;SDS011;55984;48.790;8.990;2022-10-30T05:28:38;24.43;;;9.60;;
68944;SDS011;55984;48.790;8.990;2022-10-30T05:31:04;31.70;;;10.67;;
68944;SDS011;55984;48.790;8.990;2022-10-30T05:33:29;24.77;;;9.90;;
68944;SDS011;55984;48.790;8.990;2022-10-30T05:35:54;31.83;;;10.10;;
68944;SDS011;55984;48.790;8.990;2022-10-30T05:38:20;26.53;;;10.60;;
68944;SDS011;55984;48.790;8.990;2022-10-30T05:40:46;26.47;;;10.60;;
68944;SDS011;55984;48.790;8.990;2022-10-30T05:43:12;27.67;;;10.43;;
68944;SDS011;55984;48.790;8.990;2022-10-30T05:45:37;25.30;;;10.33;;
68944;SDS011;55984;48.790;8.990;2022-10-30T05:48:03;24.63;;;10.30;;
68944;SDS011;55984;48.790;8.990;2022-10-30T05:50:30;23.47;;;9.60;;
68944;SDS011;55984;48.790;8.990;2022-10-30T05:52:56;29.23;;;10.80;;
68944;SDS011;55984;48.790;8.990;2022-10-30T05:55:23;30.00;;;11.50;;
68944;SDS011;55984;48.790;8.990;2022-10-30T05:57:48;26.90;;;10.00;;
68944;SDS011;55984;48.790;8.990;2022-10-30T06:00:14;25.07;;;10.27;;
68944;SDS011;55984;48.790;8.990;2022-10-30T06:02:40;34.47;;;11.80;;
68944;SDS011;55984;48.790;8.990;2022-10-30T06:05:06;31.00;;;11.80;;
68944;SDS011;55984;48.790;8.990;2022-10-30T06:07:32;26.63;;;11.03;;
68944;SDS011;55984;48.790;8.990;2022-10-30T06:09:57;28.43;;;10.77;;
68944;SDS011;55984;48.790;8.990;2022-10-30T06:12:22;30.93;;;10.80;;
68944;SDS011;55984;48.790;8.990;2022-10-30T06:14:48;23.87;;;10.10;;
68944;SDS011;55984;48.790;8.990;2022-10-30T06:17:13;31.03;;;10.53;;
68944;SDS011;55984;48.790;8.990;2022-10-30T06:19:39;26.10;;;11.10;;
68944;SDS011;55984;48.790;8.990;2022-10-30T06:22:04;29.27;;;11.67;;
68944;SDS011;55984;48.790;8.990;2022-10-30T06:24:29;30.20;;;13.20;;
68944;SDS011;55984;48.790;8.990;2022-10-30T06:26:54;32.30;;;13.30;;
68944;SDS011;55984;48.790;8.990;2022-10-30T06:29:20;32.40;;;13.13;;
68944;SDS011;55984;48.790;8.990;2022-10-30T06:31:45;36.87;;;14.63;;
68944;SDS011;55984;48.790;8.990;2022-10-30T06:34:10;42.63;;;13.63;;
68944;SDS011;55984;48.790;8.990;2022-10-30T06:36:36;30.30;;;11.80;;
68944;SDS011;55984;48.790;8.990;2022-10-30T06:39:01;30.13;;;10.70;;
68944;SDS011;55984;48.790;8.990;2022-10-30T06:41:26;40.37;;;12.23;;
68944;SDS011;55984;48.790;8.990;2022-10-30T06:43:52;37.23;;;12.50;;
68944;SDS011;55984;48.790;8.990;2022-10-30T06:46:17;40.73;;;14.00;;
68944;SDS011;55984;48.790;8.990;2022-10-30T06:48:42;32.60;;;13.43;;
68944;SDS011;55984;48.790;8.990;2022-10-30T06:51:08;32.20;;;13.33;;
68944;SDS011;55984;48.790;8.990;2022-10-30T06:53:33;36.10;;;14.50;;
68944;SDS011;55984;48.790;8.990;2022-10-30T06:55:59;33.20;;;14.23;;
68944;SDS011;55984;48.790;8.990;2022-10-30T06:58:26;31.90;;;13.87;;
68944;SDS011;55984;48.790;8.990;2022-10-30T07:00:52;40.33;;;16.77;;
68944;SDS011;55984;48.790;8.990;2022-10-30T07:03:18;36.73;;;14.67;;
68944;SDS011;55984;48.790;8.990;2022-10-30T07:05:43;33.20;;;13.83;;
68944;SDS011;55984;48.790;8.990;2022-10-30T07:08:09;30.30;;;12.00;;
68944;SDS011;55984;48.790;8.990;2022-10-30T07:10:34;33.83;;;12.93;;
68944;SDS011;55984;48.790;8.990;2022-10-30T07:13:00;27.30;;;12.70;;
68944;SDS011;55984;48.790;8.990;2022-10-30T07:15:25;33.97;;;15.20;;
68944;SDS011;55984;48.790;8.990;2022-10-30T07:17:55;31.57;;;12.67;;
68944;SDS011;55984;48.790;8.990;2022-10-30T07:20:22;36.40;;;12.73;;
68944;SDS011;55984;48.790;8.990;2022-10-30T07:22:48;27.30;;;11.87;;
68944;SDS011;55984;48.790;8.990;2022-10-30T07:25:13;24.97;;;11.47;;
68944;SDS011;55984;48.790;8.990;2022-10-30T07:27:46;26.03;;;11.87;;
68944;SDS011;55984;48.790;8.990;2022-10-30T07:30:14;27.10;;;11.87;;
68944;SDS011;55984;48.790;8.990;2022-10-30T07:32:41;24.90;;;10.33;;
68944;SDS011;55984;48.790;8.990;2022-10-30T07:35:07;28.53;;;11.87;;
68944;SDS011;55984;48.790;8.990;2022-10-30T07:37:34;24.80;;;10.10;;
68944;SDS011;55984;48.790;8.990;2022-10-30T07:40:02;21.70;;;9.43;;
68944;SDS011;55984;48.790;8.990;2022-10-30T07:42:28;21.17;;;9.60;;
68944;SDS011;55984;48.790;8.990;2022-10-30T07:44:54;21.13;;;9.40;;
68944;SDS011;55984;48.790;8.990;2022-10-30T07:47:19;18.97;;;7.77;;
68944;SDS011;55984;48.790;8.990;2022-10-30T07:49:45;23.23;;;8.47;;
68944;SDS011;55984;48.790;8.990;2022-10-30T07:52:10;19.43;;;7.60;;
68944;SDS011;55984;48.790;8.990;2022-10-30T07:54:35;15.37;;;7.20;;
68944;SDS011;55984;48.790;8.990;2022-10-30T07:57:00;18.10;;;6.30;;
68944;SDS011;55984;48.790;8.990;2022-10-30T07:59:27;23.47;;;7.57;;
68944;SDS011;55984;48.790;8.990;2022-10-30T08:01:52;20.50;;;8.00;;
68944;SDS011;55984;48.790;8.990;2022-10-30T08:04:17;20.10;;;6.90;;
68944;SDS011;55984;48.790;8.990;2022-10-30T08:06:43;19.93;;;6.63;;
68944;SDS011;55984;48.790;8.990;2022-10-30T08:09:08;14.97;;;6.47;;
68944;SDS011;55984;48.790;8.990;2022-10-30T08:11:34;14.83;;;6.77;;
68944;SDS011;55984;48.790;8.990;2022-10-30T08:13:59;24.00;;;7.87;;
68944;SDS011;55984;48.790;8.990;2022-10-30T08:16:27;27.20;;;7.70;;
68944;SDS011;55984;48.790;8.990;2022-10-30T08:18:52;17.73;;;6.10;;
68944;SDS011;55984;48.790;8.990;2022-10-30T08:21:18;15.13;;;6.33;;
68944;SDS011;55984;48.790;8.990;2022-10-30T08:23:44;17.60;;;6.30;;
68944;SDS011;55984;48.790;8.990;2022-10-30T08:26:09;21.93;;;6.60;;
68944;SDS011;55984;48.790;8.990;2022-10-30T08:28:34;15.77;;;5.83;;
68944;SDS011;55984;48.790;8.990;2022-10-30T08:31:00;20.13;;;6.50;;
68944;SDS011;55984;48.790;8.990;2022-10-30T08:33:26;20.70;;;6.63;;
68944;SDS011;55984;48.790;8.990;2022-10-30T08:35:54;21.40;;;6.07;;
68944;SDS011;55984;48.790;8.990;2022-10-30T08:38:21;20.60;;;6.77;;
68944;SDS011;55984;48.790;8.990;2022-10-30T08:40:47;17.80;;;6.93;;
68944;SDS011;55984;48.790;8.990;2022-10-30T08:43:13;15.27;;;6.40;;
68944;SDS011;55984;48.790;8.990;2022-10-30T08:45:39;13.80;;;5.60;;
68944;SDS011;55984;48.790;8.990;2022-10-30T08:48:05;15.83;;;5.80;;
68944;SDS011;55984;48.790;8.990;2022-10-30T08:50:32;20.07;;;6.87;;
68944;SDS011;55984;48.790;8.990;2022-10-30T08:53:05;15.93;;;5.03;;
68944;SDS011;55984;48.790;8.990;2022-10-30T08:55:32;13.40;;;5.00;;
68944;SDS011;55984;48.790;8.990;2022-10-30T08:57:59;12.93;;;4.83;;
68944;SDS011;55984;48.790;8.990;2022-10-30T09:00:24;12.20;;;4.80;;
68944;SDS011;55984;48.790;8.990;2022-10-30T09:02:50;13.43;;;4.90;;
68944;SDS011;55984;48.790;8.990;2022-10-30T09:05:16;10.53;;;4.60;;
68944;SDS011;55984;48.790;8.990;2022-10-30T09:07:41;12.73;;;4.50;;
68944;SDS011;55984;48.790;8.990;2022-10-30T09:10:07;11.17;;;4.53;;
68944;SDS011;55984;48.790;8.990;2022-10-30T09:12:32;15.03;;;6.30;;
68944;SDS011;55984;48.790;8.990;2022-10-30T09:14:58;13.23;;;5.23;;
68944;SDS011;55984;48.790;8.990;2022-10-30T09:17:23;12.80;;;4.47;;
68944;SDS011;55984;48.790;8.990;2022-10-30T09:19:49;12.60;;;4.80;;
68944;SDS011;55984;48.790;8.990;2022-10-30T09:22:14;10.90;;;4.10;;
68944;SDS011;55984;48.790;8.990;2022-10-30T09:24:39;17.00;;;5.40;;
68944;SDS011;55984;48.790;8.990;2022-10-30T09:27:05;11.97;;;4.70;;
68944;SDS011;55984;48.790;8.990;2022-10-30T09:29:31;12.60;;;5.23;;
68944;SDS011;55984;48.790;8.990;2022-10-30T09:31:57;10.40;;;4.53;;
68944;SDS011;55984;48.790;8.990;2022-10-30T09:34:22;13.67;;;4.60;;
68944;SDS011;55984;48.790;8.990;2022-10-30T09:36:48;17.73;;;4.87;;
68944;SDS011;55984;48.790;8.990;2022-10-30T09:39:13;15.33;;;4.53;;
68944;SDS011;55984;48.790;8.990;2022-10-30T09:44:41;10.43;;;4.03;;
68944;SDS011;55984;48.790;8.990;2022-10-30T09:52:45;10.53;;;4.87;;
68944;SDS011;55984;48.790;8.990;2022-10-30T09:55:32;11.50;;;4.30;;
68944;SDS011;55984;48.790;8.990;2022-10-30T09:58:01;12.50;;;4.80;;
68944;SDS011;55984;48.790;8.990;2022-10-30T10:00:40;9.30;;;3.87;;
68944;SDS011;55984;48.790;8.990;2022-10-30T10:03:16;9.23;;;4.43;;
68944;SDS011;55984;48.790;8.990;2022-10-30T10:05:45;13.93;;;4.07;;
68944;SDS011;55984;48.790;8.990;2022-10-30T10:08:23;11.23;;;4.57;;
68944;SDS011;55984;48.790;8.990;2022-10-30T10:10:56;8.67;;;3.80;;
68944;SDS011;55984;48.790;8.990;2022-10-30T10:18:52;9.23;;;4.13;;
68944;SDS011;55984;48.790;8.990;2022-10-30T10:21:25;8.70;;;4.20;;
68944;SDS011;55984;48.790;8.990;2022-10-30T10:23:53;9.97;;;4.07;;
68944;SDS011;55984;48.790;8.990;2022-10-30T10:26:27;10.27;;;3.97;;
68944;SDS011;55984;48.790;8.990;2022-10-30T10:34:34;12.63;;;4.60;;
68944;SDS011;55984;48.790;8.990;2022-10-30T10:40:17;12.50;;;4.90;;
68944;SDS011;55984;48.790;8.990;2022-10-30T10:43:09;7.90;;;3.87;;
68944;SDS011;55984;48.790;8.990;2022-10-30T10:51:12;8.90;;;4.30;;
68944;SDS011;55984;48.790;8.990;2022-10-30T10:56:17;9.43;;;4.13;;
68944;SDS011;55984;48.790;8.990;2022-10-30T10:58:49;9.70;;;3.50;;
68944;SDS011;55984;48.790;8.990;2022-10-30T11:01:33;9.87;;;3.90;;
68944;SDS011;55984;48.790;8.990;2022-10-30T11:04:03;9.53;;;3.53;;
68944;SDS011;55984;48.790;8.990;2022-10-30T11:06:36;9.33;;;3.60;;
68944;SDS011;55984;48.790;8.990;2022-10-30T11:09:14;10.20;;;3.97;;
68944;SDS011;55984;48.790;8.990;2022-10-30T11:11:43;9.80;;;4.17;;
68944;SDS011;55984;48.790;8.990;2022-10-30T11:14:11;7.70;;;3.10;;
68944;SDS011;55984;48.790;8.990;2022-10-30T11:19:23;10.43;;;3.47;;
68944;SDS011;55984;48.790;8.990;2022-10-30T11:21:49;10.37;;;3.40;;
68944;SDS011;55984;48.790;8.990;2022-10-30T11:24:28;12.60;;;3.43;;
68944;SDS011;55984;48.790;8.990;2022-10-30T11:27:14;11.20;;;3.80;;
68944;SDS011;55984;48.790;8.990;2022-10-30T11:29:46;13.13;;;4.20;;
68944;SDS011;55984;48.790;8.990;2022-10-30T11:32:19;10.10;;;3.67;;
68944;SDS011;55984;48.790;8.990;2022-10-30T11:34:46;14.00;;;3.60;;
68944;SDS011;55984;48.790;8.990;2022-10-30T11:37:36;12.40;;;3.80;;
68944;SDS011;55984;48.790;8.990;2022-10-30T11:40:14;11.63;;;3.57;;
68944;SDS011;55984;48.790;8.990;2022-10-30T11:42:47;10.17;;;3.70;;
68944;SDS011;55984;48.790;8.990;2022-10-30T11:45:18;11.80;;;4.10;;
68944;SDS011;55984;48.790;8.990;2022-10-30T11:47:48;8.77;;;3.50;;
68944;SDS011;55984;48.790;8.990;2022-10-30T11:52:51;9.67;;;3.43;;
68944;SDS011;55984;48.790;8.990;2022-10-30T11:57:59;10.40;;;3.67;;
68944;SDS011;55984;48.790;8.990;2022-10-30T12:00:26;11.40;;;3.50;;
68944;SDS011;55984;48.790;8.990;2022-10-30T12:02:55;11.23;;;3.30;;
68944;SDS011;55984;48.790;8.990;2022-10-30T12:07:49;12.13;;;4.13;;
68944;SDS011;55984;48.790;8.990;2022-10-30T12:10:25;17.83;;;4.80;;
68944;SDS011;55984;48.790;8.990;2022-10-30T12:12:51;12.43;;;4.50;;
68944;SDS011;55984;48.790;8.990;2022-10-30T12:15:18;15.90;;;3.77;;
68944;SDS011;55984;48.790;8.990;2022-10-30T12:20:17;13.40;;;3.90;;
68944;SDS011;55984;48.790;8.990;2022-10-30T12:22:43;14.40;;;3.70;;
68944;SDS011;55984;48.790;8.990;2022-10-30T12:25:22;6.90;;;3.40;;
68944;SDS011;55984;48.790;8.990;2022-10-30T12:27:49;7.43;;;3.10;;
68944;SDS011;55984;48.790;8.990;2022-10-30T12:35:48;9.90;;;4.00;;
68944;SDS011;55984;48.790;8.990;2022-10-30T12:43:27;8.83;;;3.50;;
68944;SDS011;55984;48.790;8.990;2022-10-30T12:45:54;9.00;;;3.70;;
68944;SDS011;55984;48.790;8.990;2022-10-30T12:48:32;15.63;;;3.80;;
68944;SDS011;55984;48.790;8.990;2022-10-30T12:56:34;11.07;;;3.30;;
68944;SDS011;55984;48.790;8.990;2022-10-30T13:01:45;5.73;;;3.07;;
68944;SDS011;55984;48.790;8.990;2022-10-30T13:04:18;5.60;;;2.97;;
68944;SDS011;55984;48.790;8.990;2022-10-30T13:09:37;13.03;;;3.30;;
68944;SDS011;55984;48.790;8.990;2022-10-30T13:17:01;13.97;;;3.47;;
68944;SDS011;55984;48.790;8.990;2022-10-30T13:19:27;10.53;;;3.10;;
68944;SDS011;55984;48.790;8.990;2022-10-30T13:22:00;9.20;;;3.37;;
68944;SDS011;55984;48.790;8.990;2022-10-30T13:24:54;6.30;;;2.77;;
68944;SDS011;55984;48.790;8.990;2022-10-30T13:27:48;7.43;;;2.80;;
68944;SDS011;55984;48.790;8.990;2022-10-30T13:30:19;7.60;;;2.83;;
68944;SDS011;55984;48.790;8.990;2022-10-30T13:57:01;5.13;;;2.57;;
68944;SDS011;55984;48.790;8.990;2022-10-30T14:10:30;6.40;;;2.90;;
68944;SDS011;55984;48.790;8.990;2022-10-30T14:13:26;9.40;;;3.40;;
68944;SDS011;55984;48.790;8.990;2022-10-30T14:16:01;7.70;;;3.20;;
68944;SDS011;55984;48.790;8.990;2022-10-30T14:31:58;6.60;;;2.50;;
68944;SDS011;55984;48.790;8.990;2022-10-30T14:37:16;6.80;;;2.77;;
68944;SDS011;55984;48.790;8.990;2022-10-30T14:39:46;4.83;;;2.70;;
68944;SDS011;55984;48.790;8.990;2022-10-30T14:42:35;7.57;;;3.40;;
68944;SDS011;55984;48.790;8.990;2022-10-30T14:48:01;6.67;;;2.80;;
68944;SDS011;55984;48.790;8.990;2022-10-30T14:51:02;7.63;;;2.70;;
68944;SDS011;55984;48.790;8.990;2022-10-30T14:53:56;7.93;;;3.20;;
68944;SDS011;55984;48.790;8.990;2022-10-30T14:56:30;12.77;;;3.93;;
68944;SDS011;55984;48.790;8.990;2022-10-30T15:07:23;6.47;;;2.80;;
68944;SDS011;55984;48.790;8.990;2022-10-30T15:15:19;8.10;;;2.97;;
68944;SDS011;55984;48.790;8.990;2022-10-30T15:17:46;6.53;;;2.90;;
68944;SDS011;55984;48.790;8.990;2022-10-30T15:20:20;8.20;;;2.80;;
68944;SDS011;55984;48.790;8.990;2022-10-30T15:22:48;8.83;;;3.67;;
68944;SDS011;55984;48.790;8.990;2022-10-30T15:25:18;10.63;;;2.80;;
68944;SDS011;55984;48.790;8.990;2022-10-30T15:27:46;8.87;;;2.90;;
68944;SDS011;55984;48.790;8.990;2022-10-30T15:30:17;8.50;;;3.00;;
68944;SDS011;55984;48.790;8.990;2022-10-30T15:32:44;8.43;;;2.97;;
68944;SDS011;55984;48.790;8.990;2022-10-30T15:35:15;11.20;;;3.10;;
68944;SDS011;55984;48.790;8.990;2022-10-30T15:40:41;4.63;;;2.77;;
68944;SDS011;55984;48.790;8.990;2022-10-30T15:43:09;5.77;;;2.80;;
68944;SDS011;55984;48.790;8.990;2022-10-30T15:45:39;6.97;;;3.20;;
68944;SDS011;55984;48.790;8.990;2022-10-30T15:51:02;12.90;;;4.47;;
68944;SDS011;55984;48.790;8.990;2022-10-30T15:56:04;8.13;;;3.07;;
68944;SDS011;55984;48.790;8.990;2022-10-30T15:58:32;9.43;;;2.90;;
68944;SDS011;55984;48.790;8.990;2022-10-30T16:01:00;8.63;;;3.20;;
68944;SDS011;55984;48.790;8.990;2022-10-30T16:03:27;6.40;;;3.20;;
68944;SDS011;55984;48.790;8.990;2022-10-30T16:06:11;6.80;;;3.00;;
68944;SDS011;55984;48.790;8.990;2022-10-30T16:08:46;12.30;;;3.17;;
68944;SDS011;55984;48.790;8.990;2022-10-30T16:11:12;9.53;;;3.77;;
68944;SDS011;55984;48.790;8.990;2022-10-30T16:13:39;11.20;;;3.40;;
68944;SDS011;55984;48.790;8.990;2022-10-30T16:16:09;9.80;;;3.23;;
68944;SDS011;55984;48.790;8.990;2022-10-30T16:18:58;7.60;;;3.00;;
68944;SDS011;55984;48.790;8.990;2022-10-30T16:21:25;13.00;;;3.63;;
68944;SDS011;55984;48.790;8.990;2022-10-30T16:23:57;5.77;;;3.00;;
68944;SDS011;55984;48.790;8.990;2022-10-30T16:26:29;7.80;;;3.40;;
68944;SDS011;55984;48.790;8.990;2022-10-30T16:29:08;8.87;;;3.40;;
68944;SDS011;55984;48.790;8.990;2022-10-30T16:31:42;10.13;;;3.50;;
68944;SDS011;55984;48.790;8.990;2022-10-30T16:34:24;7.13;;;3.13;;
68944;SDS011;55984;48.790;8.990;2022-10-30T16:36:55;8.10;;;3.30;;
68944;SDS011;55984;48.790;8.990;2022-10-30T16:39:22;6.37;;;3.50;;
68944;SDS011;55984;48.790;8.990;2022-10-30T16:41:49;7.23;;;3.47;;
68944;SDS011;55984;48.790;8.990;2022-10-30T16:46:50;10.27;;;3.67;;
68944;SDS011;55984;48.790;8.990;2022-10-30T16:49:26;9.53;;;3.50;;
68944;SDS011;55984;48.790;8.990;2022-10-30T16:52:02;7.97;;;3.37;;
68944;SDS011;55984;48.790;8.990;2022-10-30T16:54:31;8.23;;;3.37;;
68944;SDS011;55984;48.790;8.990;2022-10-30T16:57:01;12.03;;;3.80;;
68944;SDS011;55984;48.790;8.990;2022-10-30T16:59:29;13.00;;;4.30;;
68944;SDS011;55984;48.790;8.990;2022-10-30T17:01:59;8.70;;;3.90;;
68944;SDS011;55984;48.790;8.990;2022-10-30T17:04:30;6.90;;;4.00;;
68944;SDS011;55984;48.790;8.990;2022-10-30T17:07:11;8.50;;;4.40;;
68944;SDS011;55984;48.790;8.990;2022-10-30T17:09:41;7.37;;;3.90;;
68944;SDS011;55984;48.790;8.990;2022-10-30T17:12:11;9.30;;;4.20;;
68944;SDS011;55984;48.790;8.990;2022-10-30T17:14:40;9.77;;;4.50;;
68944;SDS011;55984;48.790;8.990;2022-10-30T17:17:18;9.43;;;4.50;;
68944;SDS011;55984;48.790;8.990;2022-10-30T17:19:56;10.20;;;4.80;;
68944;SDS011;55984;48.790;8.990;2022-10-30T17:22:27;6.57;;;4.00;;
68944;SDS011;55984;48.790;8.990;2022-10-30T17:24:53;11.13;;;4.13;;
68944;SDS011;55984;48.790;8.990;2022-10-30T17:27:30;9.10;;;4.30;;
68944;SDS011;55984;48.790;8.990;2022-10-30T17:30:39;9.50;;;4.20;;
68944;SDS011;55984;48.790;8.990;2022-10-30T17:33:21;10.20;;;4.30;;
68944;SDS011;55984;48.790;8.990;2022-10-30T17:35:56;16.00;;;4.70;;
68944;SDS011;55984;48.790;8.990;2022-10-30T17:38:22;14.03;;;6.13;;
68944;SDS011;55984;48.790;8.990;2022-10-30T17:40:47;13.83;;;5.10;;